Time;durP1;ratioP1;P1;durP2;ratioP2;P2;SDS_P1;SDS_P2;PMS_P1;PMS_P2;Temp;Humidity;BMP_temperature;BMP_pressure;BME280_temperature;BME280_humidity;BME280_pressure;Samples;Min_cycle;Max_cycle;Signal;HPM_P1;HPM_P2
2020/12/22 00:00:53;;;;;;;43.98;22.05;;;;;;;-3.76;84.88;102555.04;1767830;81;20904;-34
2020/12/22 00:03:21;;;;;;;47.43;22.00;;;;;;;-3.73;84.79;102548.44;1767902;81;20935;-34
2020/12/22 00:05:52;;;;;;;41.92;21.42;;;;;;;-3.77;84.92;102550.75;1768026;81;21015;-37
2020/12/22 00:08:19;;;;;;;50.25;22.70;;;;;;;-3.70;84.64;102541.06;1780792;80;21395;-33
2020/12/22 00:10:46;;;;;;;40.60;20.62;;;;;;;-3.71;84.62;102535.50;1782465;80;21003;-34
2020/12/22 00:13:14;;;;;;;45.50;21.20;;;;;;;-3.75;84.60;102534.42;1782529;80;20971;-34
2020/12/22 00:15:43;;;;;;;38.28;21.07;;;;;;;-3.78;84.69;102535.06;1782350;80;21057;-35
2020/12/22 00:18:12;;;;;;;43.55;20.43;;;;;;;-3.76;84.73;102538.98;1782466;80;21149;-36
2020/12/22 00:20:39;;;;;;;39.55;20.45;;;;;;;-3.77;84.87;102533.02;1782488;80;21130;-34
2020/12/22 00:23:07;;;;;;;37.93;20.68;;;;;;;-3.73;84.70;102528.18;1782436;80;20939;-35
2020/12/22 00:25:44;;;;;;;44.38;21.82;;;;;;;-3.73;84.69;102527.81;1782534;80;21470;-34
2020/12/22 00:28:15;;;;;;;44.30;20.15;;;;;;;-3.68;84.59;102523.06;1782491;80;20952;-35
2020/12/22 00:30:44;;;;;;;42.23;20.65;;;;;;;-3.72;84.56;102514.75;1782545;80;21020;-36
2020/12/22 00:33:11;;;;;;;44.20;21.30;;;;;;;-3.67;84.37;102523.56;1782439;80;21366;-36
2020/12/22 00:35:39;;;;;;;37.90;20.52;;;;;;;-3.68;84.33;102528.13;1782398;80;20955;-37
2020/12/22 00:38:08;;;;;;;33.90;19.70;;;;;;;-3.71;84.33;102533.88;1782502;80;20911;-34
2020/12/22 00:40:36;;;;;;;40.95;19.32;;;;;;;-3.71;84.44;102538.94;1782420;80;21024;-34
2020/12/22 00:43:05;;;;;;;36.65;18.85;;;;;;;-3.71;84.51;102535.14;1782585;80;21534;-37
2020/12/22 00:45:33;;;;;;;43.17;20.45;;;;;;;-3.69;84.49;102539.03;1782521;80;21196;-35
2020/12/22 00:48:01;;;;;;;40.92;20.05;;;;;;;-3.68;84.46;102535.72;1782416;80;21003;-35
2020/12/22 00:50:29;;;;;;;39.48;20.40;;;;;;;-3.67;84.49;102540.02;1754126;80;21030;-35
2020/12/22 00:52:57;;;;;;;42.13;19.37;;;;;;;-3.70;84.61;102538.16;1782396;80;20987;-35
2020/12/22 00:55:26;;;;;;;34.48;18.07;;;;;;;-3.67;84.48;102536.22;1782533;80;20915;-35
2020/12/22 00:57:54;;;;;;;32.33;17.57;;;;;;;-3.68;84.53;102534.45;1782399;80;21369;-34
2020/12/22 01:00:22;;;;;;;38.15;19.32;;;;;;;-3.69;84.56;102533.59;1782463;80;20991;-35
2020/12/22 01:02:50;;;;;;;37.13;19.30;;;;;;;-3.68;84.56;102533.19;1782473;80;21034;-35
2020/12/22 01:05:17;;;;;;;40.73;20.27;;;;;;;-3.69;84.65;102533.59;1782484;80;20971;-34
2020/12/22 01:07:45;;;;;;;34.18;17.95;;;;;;;-3.66;84.49;102532.95;1775075;80;20972;-35
2020/12/22 01:10:12;;;;;;;36.40;19.42;;;;;;;-3.69;84.59;102531.43;1768072;81;21418;-35
2020/12/22 01:12:43;;;;;;;41.10;20.05;;;;;;;-3.67;84.57;102530.78;1767860;81;20987;-35
2020/12/22 01:15:11;;;;;;;34.83;17.85;;;;;;;-3.65;84.50;102527.98;1767933;81;20928;-35
2020/12/22 01:17:38;;;;;;;37.38;18.07;;;;;;;-3.66;84.59;102524.09;1767809;81;20920;-34
2020/12/22 01:20:07;;;;;;;33.88;18.55;;;;;;;-3.66;84.63;102518.63;1768012;81;20881;-36
2020/12/22 01:22:35;;;;;;;37.83;18.90;;;;;;;-3.68;84.60;102523.96;1767954;81;21028;-34
2020/12/22 01:25:03;;;;;;;41.40;19.73;;;;;;;-3.67;84.71;102523.56;1767879;80;20971;-36
2020/12/22 01:27:31;;;;;;;35.35;18.12;;;;;;;-3.67;84.74;102520.66;1767918;80;21165;-36
2020/12/22 01:29:59;;;;;;;43.25;20.35;;;;;;;-3.64;84.78;102522.55;1767918;80;21549;-34
2020/12/22 01:32:27;;;;;;;32.58;17.82;;;;;;;-3.58;84.50;102514.48;1767967;81;20865;-34
2020/12/22 01:34:55;;;;;;;37.08;18.60;;;;;;;-3.65;84.58;102528.38;1767970;81;22065;-35
2020/12/22 01:37:23;;;;;;;38.80;19.45;;;;;;;-3.66;84.68;102527.48;1767914;80;20936;-35
2020/12/22 01:39:51;;;;;;;37.58;19.45;;;;;;;-3.65;84.70;102519.52;1767916;81;20984;-34
2020/12/22 01:42:19;;;;;;;33.90;17.48;;;;;;;-3.65;84.59;102521.65;1767863;81;20996;-36
2020/12/22 01:44:47;;;;;;;35.55;17.00;;;;;;;-3.68;84.71;102512.94;1767948;81;21077;-35
2020/12/22 01:47:15;;;;;;;35.35;18.95;;;;;;;-3.66;84.78;102514.83;1767904;81;21300;-36
2020/12/22 01:49:43;;;;;;;38.33;18.40;;;;;;;-3.65;84.80;102506.45;1767900;81;20971;-33
2020/12/22 01:52:11;;;;;;;41.35;20.02;;;;;;;-3.63;84.70;102509.12;1767939;81;20979;-36
2020/12/22 01:54:39;;;;;;;36.05;17.87;;;;;;;-3.64;84.64;102503.56;1767849;81;21039;-35
2020/12/22 01:57:14;;;;;;;38.55;19.15;;;;;;;-3.64;84.75;102508.22;1768030;81;20916;-36
2020/12/22 01:59:43;;;;;;;41.18;19.62;;;;;;;-3.63;84.75;102511.65;1767823;81;21027;-34
2020/12/22 02:02:11;;;;;;;42.27;19.07;;;;;;;-3.64;84.77;102506.95;1767828;81;20995;-34
2020/12/22 02:04:39;;;;;;;38.20;19.20;;;;;;;-3.59;84.73;102516.16;1767943;81;21019;-36
2020/12/22 02:07:09;;;;;;;34.10;18.30;;;;;;;-3.60;84.61;102514.40;1722783;80;20935;-35
2020/12/22 02:09:38;;;;;;;37.93;19.30;;;;;;;-3.61;84.72;102517.70;1722980;80;21022;-35
2020/12/22 02:12:06;;;;;;;41.50;20.45;;;;;;;-3.61;84.77;102515.17;1776402;80;21187;-37
2020/12/22 02:14:34;;;;;;;35.88;18.20;;;;;;;-3.59;84.79;102514.00;1776366;80;20932;-34
2020/12/22 02:18:36;;;;;;;33.20;18.10;;;;;;;-3.53;84.74;102506.47;1777109;79;22090;-34
2020/12/22 02:21:03;;;;;;;35.13;17.00;;;;;;;-3.57;84.69;102505.75;1749791;82;20905;-34
2020/12/22 02:23:31;;;;;;;46.85;18.45;;;;;;;-3.58;84.72;102498.93;1749719;81;21374;-34
2020/12/22 02:25:59;;;;;;;40.98;18.82;;;;;;;-3.56;84.75;102504.98;1749717;82;21026;-35
2020/12/22 02:28:27;;;;;;;36.00;18.30;;;;;;;-3.55;84.77;102504.21;1749793;82;20896;-34
2020/12/22 02:30:55;;;;;;;34.88;17.85;;;;;;;-3.51;84.72;102505.33;1749710;82;20983;-34
2020/12/22 02:33:22;;;;;;;37.13;19.98;;;;;;;-3.50;84.70;102504.55;1749760;81;20912;-33
2020/12/22 02:35:50;;;;;;;33.78;16.65;;;;;;;-3.51;84.68;102497.33;1749733;82;21202;-35
2020/12/22 02:38:18;;;;;;;30.57;17.77;;;;;;;-3.49;84.69;102494.52;1749670;82;21018;-34
2020/12/22 02:40:46;;;;;;;34.10;16.25;;;;;;;-3.48;84.58;102486.14;1749795;82;20991;-35
2020/12/22 02:43:14;;;;;;;34.48;16.25;;;;;;;-3.49;84.60;102492.39;1749695;82;21042;-34
2020/12/22 02:45:43;;;;;;;41.58;18.62;;;;;;;-3.50;84.61;102496.55;1749850;82;20931;-35
2020/12/22 02:48:11;;;;;;;37.48;18.17;;;;;;;-3.49;84.59;102494.52;1749719;82;21370;-35
2020/12/22 02:50:39;;;;;;;39.38;18.85;;;;;;;-3.48;84.61;102492.47;1749623;82;20978;-36
2020/12/22 02:53:07;;;;;;;34.92;17.57;;;;;;;-3.48;84.60;102486.55;1749774;82;21117;-34
2020/12/22 02:55:35;;;;;;;39.42;19.52;;;;;;;-3.47;84.64;102493.38;1749719;82;20915;-35
2020/12/22 02:58:03;;;;;;;28.47;17.37;;;;;;;-3.46;84.66;102492.20;1749772;82;20916;-33
2020/12/22 03:00:31;;;;;;;34.55;18.77;;;;;;;-3.45;84.65;102493.09;1749889;82;22263;-34
2020/12/22 03:02:59;;;;;;;35.30;18.73;;;;;;;-3.46;84.65;102494.73;1749694;82;20971;-33
2020/12/22 03:05:26;;;;;;;36.38;17.45;;;;;;;-3.45;84.69;102491.83;1749743;82;20928;-35
2020/12/22 03:07:54;;;;;;;34.23;18.57;;;;;;;-3.44;84.64;102493.95;1749630;81;21042;-33
2020/12/22 03:10:22;;;;;;;32.23;17.87;;;;;;;-3.46;84.65;102492.20;1749779;82;20947;-35
2020/12/22 03:12:50;;;;;;;37.42;18.77;;;;;;;-3.44;84.66;102495.22;1749743;82;21204;-34
2020/12/22 03:15:18;;;;;;;30.20;18.35;;;;;;;-3.44;84.67;102500.30;1749656;82;21015;-34
2020/12/22 03:17:46;;;;;;;32.05;16.82;;;;;;;-3.44;84.75;102500.30;1750126;81;20971;-33
2020/12/22 03:20:14;;;;;;;32.13;17.57;;;;;;;-3.42;84.73;102502.55;1750547;82;20940;-34
2020/12/22 03:22:42;;;;;;;33.42;17.02;;;;;;;-3.43;84.71;102502.95;1750488;82;20979;-34
2020/12/22 03:25:11;;;;;;;27.10;16.60;;;;;;;-3.43;84.72;102497.87;1750526;82;21214;-34
2020/12/22 03:27:40;;;;;;;29.48;16.75;;;;;;;-3.42;84.71;102501.28;1750441;82;20979;-34
2020/12/22 03:30:11;;;;;;;27.80;16.30;;;;;;;-3.41;84.72;102497.97;1750019;82;20928;-35
2020/12/22 03:32:39;;;;;;;33.83;16.57;;;;;;;-3.40;84.73;102491.77;1749843;82;21533;-35
2020/12/22 03:35:09;;;;;;;31.90;17.62;;;;;;;-3.40;84.63;102484.57;1750029;82;20936;-34
2020/12/22 03:37:38;;;;;;;31.00;17.32;;;;;;;-3.42;84.59;102484.81;1749901;82;21210;-35
2020/12/22 03:40:08;;;;;;;31.95;18.70;;;;;;;-3.43;84.60;102483.95;1749849;82;20888;-36
2020/12/22 03:42:36;;;;;;;25.12;15.63;;;;;;;-3.43;84.65;102486.86;1749899;82;20935;-34
2020/12/22 03:45:06;;;;;;;34.98;17.27;;;;;;;-3.42;84.70;102489.88;1750015;82;21454;-35
2020/12/22 03:47:34;;;;;;;28.50;15.93;;;;;;;-3.41;84.67;102481.51;1749939;82;20917;-35
2020/12/22 03:50:05;;;;;;;31.05;16.75;;;;;;;-3.42;84.70;102483.55;1746552;82;21202;-35
2020/12/22 03:52:32;;;;;;;27.22;16.30;;;;;;;-3.43;84.74;102480.15;1749880;82;21002;-34
2020/12/22 03:55:00;;;;;;;28.17;16.93;;;;;;;-3.41;84.75;102484.04;1749898;82;20998;-35
2020/12/22 03:57:28;;;;;;;23.75;15.03;;;;;;;-3.41;84.73;102480.24;1749856;82;21042;-34
2020/12/22 03:59:56;;;;;;;30.88;17.80;;;;;;;-3.40;84.80;102490.91;1749935;82;21436;-35
2020/12/22 04:02:23;;;;;;;28.40;15.60;;;;;;;-3.37;84.76;102478.45;1749945;82;21214;-35
2020/12/22 04:04:52;;;;;;;35.98;16.82;;;;;;;-3.40;84.72;102482.03;1750022;82;20999;-37
2020/12/22 04:07:21;;;;;;;31.45;17.55;;;;;;;-3.40;84.77;102470.64;1749869;82;21007;-34
2020/12/22 04:09:50;;;;;;;30.72;18.00;;;;;;;-3.40;84.80;102478.23;1749977;82;20995;-34
2020/12/22 04:12:18;;;;;;;30.10;16.62;;;;;;;-3.40;84.86;102478.23;1749994;82;21010;-35
2020/12/22 04:14:47;;;;;;;28.98;16.52;;;;;;;-3.40;84.88;102468.11;1749851;82;22634;-35
2020/12/22 04:17:15;;;;;;;32.08;16.97;;;;;;;-3.39;84.80;102465.66;1748793;81;21066;-35
2020/12/22 04:19:43;;;;;;;29.65;16.85;;;;;;;-3.41;84.90;102467.20;1744155;82;21432;-36
2020/12/22 04:22:10;;;;;;;29.48;16.93;;;;;;;-3.40;84.97;102474.44;1744121;82;21002;-36
2020/12/22 04:24:38;;;;;;;37.60;16.90;;;;;;;-3.39;84.98;102470.73;1744055;82;21011;-35
2020/12/22 04:27:07;;;;;;;26.33;16.05;;;;;;;-3.37;84.98;102472.12;1744089;82;21369;-36
2020/12/22 04:29:34;;;;;;;27.32;15.93;;;;;;;-3.38;85.04;102471.63;1744055;82;20928;-36
2020/12/22 04:32:02;;;;;;;31.55;16.50;;;;;;;-3.34;84.82;102474.86;1744019;82;20948;-35
2020/12/22 04:34:30;;;;;;;32.10;15.70;;;;;;;-3.35;84.81;102468.91;1744064;82;21015;-35
2020/12/22 04:36:58;;;;;;;25.68;15.18;;;;;;;-3.35;84.69;102462.97;1744033;82;21007;-36
2020/12/22 04:39:26;;;;;;;29.70;16.12;;;;;;;-3.37;84.66;102470.45;1744057;82;21419;-35
2020/12/22 04:41:54;;;;;;;30.82;17.25;;;;;;;-3.38;84.79;102469.09;1744064;82;21209;-35
2020/12/22 04:44:22;;;;;;;28.30;15.43;;;;;;;-3.35;84.74;102461.70;1691958;82;20983;-34
2020/12/22 04:46:51;;;;;;;26.12;14.43;;;;;;;-3.37;84.86;102456.92;1744032;81;20999;-34
2020/12/22 04:49:24;;;;;;;28.35;16.35;;;;;;;-3.36;84.83;102465.02;1744062;82;21051;-34
2020/12/22 04:51:53;;;;;;;30.50;17.12;;;;;;;-3.37;84.91;102465.78;1744078;82;21077;-35
2020/12/22 04:54:23;;;;;;;30.27;15.72;;;;;;;-3.36;84.80;102470.08;1742130;82;21521;-34
2020/12/22 04:56:51;;;;;;;26.05;15.90;;;;;;;-3.35;84.81;102466.77;1744069;82;21042;-35
2020/12/22 04:59:18;;;;;;;36.00;17.85;;;;;;;-3.35;84.86;102473.10;1744083;82;20983;-35
2020/12/22 05:01:46;;;;;;;27.22;15.90;;;;;;;-3.34;84.73;102473.59;1715186;82;20991;-34
2020/12/22 05:04:14;;;;;;;28.30;16.00;;;;;;;-3.34;84.77;102468.13;1744046;82;21208;-34
2020/12/22 05:06:43;;;;;;;30.65;17.70;;;;;;;-3.34;84.53;102471.93;1744025;82;20943;-36
2020/12/22 05:09:11;;;;;;;30.57;16.95;;;;;;;-3.34;84.51;102466.00;1744119;82;20932;-35
2020/12/22 05:11:39;;;;;;;34.92;17.10;;;;;;;-3.35;84.54;102466.77;1743930;82;21042;-36
2020/12/22 05:14:07;;;;;;;29.48;16.60;;;;;;;-3.35;84.52;102475.64;1744082;82;20940;-37
2020/12/22 05:16:36;;;;;;;29.00;15.38;;;;;;;-3.35;84.61;102473.97;1744023;82;21208;-33
2020/12/22 05:19:04;;;;;;;35.23;18.02;;;;;;;-3.32;84.60;102472.05;1737758;82;20940;-35
2020/12/22 05:21:36;;;;;;;30.50;17.37;;;;;;;-3.34;84.62;102474.46;1735893;82;21174;-36
2020/12/22 05:24:04;;;;;;;30.97;16.62;;;;;;;-3.30;84.40;102469.61;1735983;82;20905;-35
2020/12/22 05:26:33;;;;;;;26.37;15.85;;;;;;;-3.33;84.41;102469.89;1735901;82;20972;-36
2020/12/22 05:29:15;;;;;;;32.03;16.70;;;;;;;-3.34;84.41;102469.39;1735882;82;21852;-37
2020/12/22 05:31:48;;;;;;;30.85;16.97;;;;;;;-3.32;84.43;102473.31;1735913;81;21031;-35
2020/12/22 05:34:18;;;;;;;36.48;18.23;;;;;;;-3.35;84.47;102469.30;1735833;82;20944;-37
2020/12/22 05:36:47;;;;;;;32.93;17.62;;;;;;;-3.34;84.49;102460.53;1735896;82;20944;-36
2020/12/22 05:39:17;;;;;;;34.10;18.15;;;;;;;-3.37;84.45;102458.19;1735995;82;20992;-41
2020/12/22 05:41:45;;;;;;;35.40;18.50;;;;;;;-3.42;84.44;102460.38;1735796;82;21374;-37
2020/12/22 05:44:13;;;;;;;42.60;18.85;;;;;;;-3.46;84.43;102463.08;1735793;82;21000;-36
2020/12/22 05:46:41;;;;;;;33.33;16.82;;;;;;;-3.44;84.34;102469.53;1735817;82;20971;-35
2020/12/22 05:49:10;;;;;;;42.13;18.40;;;;;;;-3.45;84.22;102472.83;1735739;82;21154;-35
2020/12/22 05:54:21;;;;;;;40.08;17.87;;;;;;;-3.40;84.31;102469.38;1851222;77;22289;-35
2020/12/22 05:56:49;;;;;;;26.30;16.42;;;;;;;-3.44;84.18;102467.00;1818466;78;20981;-35
2020/12/22 05:59:20;;;;;;;34.27;16.52;;;;;;;-3.40;84.20;102471.91;1792151;78;21408;-33
2020/12/22 06:01:48;;;;;;;36.45;17.35;;;;;;;-3.38;84.01;102471.63;1823233;78;20931;-35
2020/12/22 06:04:18;;;;;;;31.97;16.57;;;;;;;-3.38;84.01;102471.22;1823306;78;21132;-36
2020/12/22 06:06:48;;;;;;;31.10;16.40;;;;;;;-3.33;83.82;102472.42;1823257;78;20955;-35
2020/12/22 06:09:16;;;;;;;30.12;17.10;;;;;;;-3.34;83.56;102473.59;1823367;78;20975;-35
2020/12/22 06:11:47;;;;;;;29.67;16.02;;;;;;;-3.34;83.47;102473.59;1823249;78;21356;-36
2020/12/22 06:14:23;;;;;;;28.52;15.65;;;;;;;-3.32;83.27;102474.18;1766477;78;21541;-35
2020/12/22 06:16:51;;;;;;;35.05;16.35;;;;;;;-3.34;83.35;102471.93;1823319;78;20867;-32
2020/12/22 06:19:19;;;;;;;29.15;15.32;;;;;;;-3.32;82.95;102465.31;1823301;78;20927;-34
2020/12/22 06:21:50;;;;;;;34.67;16.40;;;;;;;-3.33;83.01;102466.49;1766147;78;21014;-34
2020/12/22 06:24:18;;;;;;;34.20;16.37;;;;;;;-3.31;83.10;102463.67;1766824;78;21396;-34
2020/12/22 06:26:51;;;;;;;33.80;17.57;;;;;;;-3.30;83.15;102462.01;1823198;78;21120;-35
2020/12/22 06:29:25;;;;;;;34.05;16.55;;;;;;;-3.27;83.16;102465.65;1791832;78;20923;-35
2020/12/22 06:31:53;;;;;;;33.45;16.40;;;;;;;-3.21;82.78;102463.54;1823285;78;21029;-34
2020/12/22 06:34:25;;;;;;;30.37;16.55;;;;;;;-3.18;82.42;102454.88;1823347;78;21002;-36
2020/12/22 06:36:59;;;;;;;32.13;15.83;;;;;;;-3.18;82.41;102453.61;1823345;78;21325;-35
2020/12/22 06:39:47;;;;;;;33.60;16.70;;;;;;;-3.18;82.37;102454.02;1822964;78;20990;-34
2020/12/22 06:42:41;;;;;;;29.23;16.57;;;;;;;-3.17;82.45;102460.84;1823244;78;20982;-35
2020/12/22 06:45:29;;;;;;;30.27;15.25;;;;;;;-3.13;82.42;102451.81;1823304;78;21022;-34
2020/12/22 06:48:02;;;;;;;29.20;15.13;;;;;;;-3.08;81.94;102453.87;1822418;78;20871;-37
2020/12/22 06:50:46;;;;;;;33.08;15.48;;;;;;;-3.11;81.80;102450.27;1823390;78;22243;-34
2020/12/22 06:53:35;;;;;;;33.98;17.17;;;;;;;-3.14;81.86;102450.06;1817111;78;21160;-36
2020/12/22 06:56:03;;;;;;;28.60;14.53;;;;;;;-3.13;81.89;102459.42;1809239;79;20920;-34
2020/12/22 06:58:44;;;;;;;25.12;14.78;;;;;;;-3.14;81.98;102455.12;1809268;79;20983;-36
2020/12/22 07:01:30;;;;;;;27.70;15.03;;;;;;;-3.09;82.00;102452.11;1808468;79;21045;-34
2020/12/22 07:04:15;;;;;;;35.25;16.17;;;;;;;-3.06;81.98;102448.52;1809142;79;21199;-35
2020/12/22 07:06:51;;;;;;;28.95;16.52;;;;;;;-3.00;81.86;102447.21;1808710;79;28437;-36
2020/12/22 07:09:34;;;;;;;27.90;16.55;;;;;;;-3.01;81.60;102447.58;1808814;79;20931;-35
2020/12/22 07:12:11;;;;;;;29.80;16.57;;;;;;;-3.02;81.61;102442.02;1808628;79;20987;-35
2020/12/22 07:14:41;;;;;;;27.42;16.17;;;;;;;-3.02;81.57;102438.22;1808649;79;21485;-34
2020/12/22 07:17:13;;;;;;;30.57;17.35;;;;;;;-2.99;81.23;102447.70;1786477;79;21206;-36
2020/12/22 07:19:46;;;;;;;28.85;15.78;;;;;;;-3.00;81.24;102441.73;1786286;79;21050;-35
2020/12/22 07:22:16;;;;;;;29.00;15.50;;;;;;;-3.05;81.23;102446.88;1808627;79;20943;-36
2020/12/22 07:24:44;;;;;;;23.45;13.30;;;;;;;-3.04;80.73;102444.84;1808543;79;20979;-34
2020/12/22 07:27:12;;;;;;;28.73;14.03;;;;;;;-3.04;80.26;102441.04;1808665;79;21303;-34
2020/12/22 07:29:41;;;;;;;22.73;13.93;;;;;;;-3.07;80.46;102444.23;1808583;79;21160;-34
2020/12/22 07:32:08;;;;;;;22.13;12.85;;;;;;;-3.06;80.57;102435.84;1808488;79;20911;-35
2020/12/22 07:34:36;;;;;;;30.55;13.22;;;;;;;-3.06;80.42;102438.78;1808536;79;21015;-35
2020/12/22 07:37:09;;;;;;;22.37;13.03;;;;;;;-3.06;80.58;102443.86;1808657;79;20983;-36
2020/12/22 07:39:37;;;;;;;22.05;11.50;;;;;;;-3.01;80.37;102442.52;1808711;79;21475;-37
2020/12/22 07:42:15;;;;;;;26.80;12.98;;;;;;;-3.01;79.51;102441.25;1808629;79;21357;-34
2020/12/22 07:44:44;;;;;;;23.92;12.33;;;;;;;-3.01;79.25;102437.45;1808510;79;21054;-35
2020/12/22 07:47:13;;;;;;;27.77;11.45;;;;;;;-3.03;79.54;102437.73;1808656;79;21565;-35
2020/12/22 07:49:42;;;;;;;21.97;11.03;;;;;;;-3.00;79.39;102443.00;1808579;79;20899;-34
2020/12/22 07:52:21;;;;;;;24.02;11.12;;;;;;;-3.01;79.57;102441.66;1808720;79;21391;-35
2020/12/22 07:54:57;;;;;;;18.60;11.45;;;;;;;-2.97;79.74;102441.08;1808118;79;22140;-36
2020/12/22 07:57:26;;;;;;;20.05;12.23;;;;;;;-2.91;79.81;102438.96;1808502;79;20920;-35
2020/12/22 08:00:08;;;;;;;24.30;11.60;;;;;;;-2.85;79.72;102441.05;1808559;79;21584;-35
2020/12/22 08:02:36;;;;;;;21.85;10.98;;;;;;;-2.79;79.15;102440.19;1808466;79;21113;-36
2020/12/22 08:05:12;;;;;;;42.40;15.35;;;;;;;-2.83;78.85;102434.42;1808610;79;20971;-37
2020/12/22 08:07:52;;;;;;;36.42;13.98;;;;;;;-2.82;78.60;102433.23;1808809;79;21186;-34
2020/12/22 08:10:20;;;;;;;30.90;14.25;;;;;;;-2.81;78.47;102433.73;1808451;79;20919;-35
2020/12/22 08:12:53;;;;;;;28.17;12.60;;;;;;;-2.78;78.41;102427.63;1808516;79;21014;-35
2020/12/22 08:15:20;;;;;;;30.25;11.15;;;;;;;-2.74;78.15;102423.63;1808651;79;21411;-34
2020/12/22 08:17:50;;;;;;;31.10;13.45;;;;;;;-2.79;78.10;102430.91;1808537;79;20869;-35
2020/12/22 08:20:18;;;;;;;20.57;11.97;;;;;;;-2.73;78.19;102421.58;1808560;79;21354;-34
2020/12/22 08:22:46;;;;;;;18.05;11.22;;;;;;;-2.66;77.63;102415.28;1808495;79;21030;-35
2020/12/22 08:25:14;;;;;;;18.50;11.48;;;;;;;-2.69;77.51;102414.67;1808566;79;21003;-35
2020/12/22 08:27:41;;;;;;;26.95;13.45;;;;;;;-2.73;77.41;102421.58;1808429;79;20919;-34
2020/12/22 08:30:20;;;;;;;24.60;13.78;;;;;;;-2.77;77.46;102415.81;1808593;79;20955;-34
2020/12/22 08:32:48;;;;;;;24.72;12.90;;;;;;;-2.79;77.85;102410.63;1808559;79;21200;-35
2020/12/22 08:35:21;;;;;;;27.02;11.83;;;;;;;-2.74;78.19;102403.34;1808447;79;21014;-35
2020/12/22 08:37:50;;;;;;;24.55;11.33;;;;;;;-2.66;78.25;102400.06;1808549;79;20985;-34
2020/12/22 08:40:29;;;;;;;22.10;12.18;;;;;;;-2.58;77.91;102395.50;1808576;79;20903;-36
2020/12/22 08:42:57;;;;;;;20.62;11.63;;;;;;;-2.55;77.30;102398.24;1808455;79;20979;-34
2020/12/22 08:45:27;;;;;;;23.87;12.53;;;;;;;-2.63;76.90;102394.81;1808499;79;22212;-34
2020/12/22 08:47:54;;;;;;;31.33;12.47;;;;;;;-2.64;77.13;102386.72;1808468;79;21034;-35
2020/12/22 08:50:23;;;;;;;18.45;11.30;;;;;;;-2.63;77.18;102393.55;1808553;79;21526;-35
2020/12/22 08:52:53;;;;;;;25.10;12.18;;;;;;;-2.60;77.04;102382.34;1808392;79;21007;-34
2020/12/22 08:55:21;;;;;;;20.70;11.70;;;;;;;-2.54;77.17;102383.52;1808570;79;20911;-34
2020/12/22 08:57:50;;;;;;;25.52;12.15;;;;;;;-2.47;77.38;102371.72;1808607;79;22626;-36
2020/12/22 09:00:17;;;;;;;25.70;11.93;;;;;;;-2.46;76.69;102379.44;1808415;79;20987;-34
2020/12/22 09:02:51;;;;;;;26.23;12.25;;;;;;;-2.49;76.40;102382.16;1808515;79;21051;-34
2020/12/22 09:05:19;;;;;;;20.15;12.07;;;;;;;-2.51;76.70;102371.92;1808565;79;20904;-35
2020/12/22 09:07:59;;;;;;;23.55;11.75;;;;;;;-2.46;76.63;102362.06;1808447;79;20975;-34
2020/12/22 09:10:26;;;;;;;24.40;13.00;;;;;;;-2.51;76.70;102361.78;1808514;79;21360;-34
2020/12/22 09:12:55;;;;;;;19.25;11.03;;;;;;;-2.49;76.83;102353.88;1808445;79;20975;-35
2020/12/22 09:15:23;;;;;;;29.15;11.95;;;;;;;-2.41;76.24;102349.28;1808480;79;20916;-35
2020/12/22 09:17:51;;;;;;;24.00;11.08;;;;;;;-2.40;75.84;102346.00;1808481;79;20999;-34
2020/12/22 09:20:24;;;;;;;18.80;11.68;;;;;;;-2.44;76.08;102351.62;1808672;79;20908;-33
2020/12/22 09:22:51;;;;;;;18.70;11.28;;;;;;;-2.48;76.08;102349.67;1808449;79;21380;-36
2020/12/22 09:25:19;;;;;;;19.10;11.50;;;;;;;-2.49;76.29;102343.73;1808392;79;20944;-34
2020/12/22 09:27:47;;;;;;;21.68;12.55;;;;;;;-2.40;75.82;102340.03;1808429;79;20940;-33
2020/12/22 09:30:16;;;;;;;18.87;11.50;;;;;;;-2.43;76.07;102343.23;1808548;79;20983;-35
2020/12/22 09:32:46;;;;;;;20.08;11.83;;;;;;;-2.37;75.94;102330.97;1808500;79;20951;-34
2020/12/22 09:35:14;;;;;;;19.30;12.15;;;;;;;-2.32;75.41;102325.80;1808593;79;21440;-34
2020/12/22 09:37:43;;;;;;;19.12;11.68;;;;;;;-2.39;75.51;102332.91;1808428;79;21042;-34
2020/12/22 09:40:10;;;;;;;27.98;14.13;;;;;;;-2.33;75.81;102327.84;1808476;79;20927;-34
2020/12/22 09:42:38;;;;;;;24.07;12.53;;;;;;;-2.17;75.90;102322.46;1808428;79;20988;-35
2020/12/22 09:45:06;;;;;;;23.75;12.78;;;;;;;-2.03;75.53;102325.88;1808553;79;20924;-36
2020/12/22 09:47:34;;;;;;;23.42;12.73;;;;;;;-1.96;74.97;102323.34;1808554;79;22794;-36
2020/12/22 09:50:03;;;;;;;21.52;11.65;;;;;;;-1.96;74.68;102319.53;1808383;79;20942;-34
2020/12/22 09:52:30;;;;;;;17.90;11.08;;;;;;;-2.06;74.94;102325.31;1808515;79;21011;-37
2020/12/22 09:54:58;;;;;;;18.87;11.75;;;;;;;-2.15;74.94;102328.52;1812541;79;20959;-34
2020/12/22 09:57:26;;;;;;;18.10;11.33;;;;;;;-2.21;75.41;102317.98;1814521;79;20975;-35
2020/12/22 09:59:55;;;;;;;21.73;11.50;;;;;;;-2.18;75.25;102319.06;1814373;79;20987;-35
2020/12/22 10:02:23;;;;;;;17.48;11.50;;;;;;;-2.12;75.42;102316.42;1814431;79;20943;-36
2020/12/22 10:04:51;;;;;;;22.75;11.70;;;;;;;-2.12;75.47;102313.51;1814474;79;20927;-36
2020/12/22 10:07:19;;;;;;;24.23;11.83;;;;;;;-2.07;75.25;102308.33;1814502;79;20986;-35
2020/12/22 10:09:46;;;;;;;17.90;12.23;;;;;;;-2.11;75.58;102307.65;1814506;79;20943;-35
2020/12/22 10:12:14;;;;;;;16.85;10.03;;;;;;;-2.05;75.86;102297.87;1814395;79;21342;-35
2020/12/22 10:14:42;;;;;;;19.45;10.13;;;;;;;-1.98;75.06;102295.72;1814402;79;21030;-33
2020/12/22 10:17:10;;;;;;;14.73;9.68;;;;;;;-2.05;74.78;102300.79;1814444;79;20919;-36
2020/12/22 10:19:38;;;;;;;19.42;11.53;;;;;;;-2.13;75.23;102301.98;1814494;79;21284;-33
2020/12/22 10:22:06;;;;;;;20.20;13.43;;;;;;;-2.12;75.59;102294.47;1814471;79;21054;-34
2020/12/22 10:24:36;;;;;;;16.57;11.22;;;;;;;-2.09;75.71;102289.59;1814564;79;21120;-35
2020/12/22 10:27:04;;;;;;;20.17;11.43;;;;;;;-2.12;75.52;102297.02;1814481;79;21002;-35
2020/12/22 10:29:32;;;;;;;18.35;11.55;;;;;;;-2.20;75.82;102295.63;1814466;79;21026;-36
2020/12/22 10:32:00;;;;;;;18.12;11.20;;;;;;;-2.27;76.12;102295.65;1814455;79;20908;-35
2020/12/22 10:34:28;;;;;;;25.35;11.60;;;;;;;-2.36;76.38;102293.40;1814452;79;20951;-35
2020/12/22 10:36:56;;;;;;;19.30;11.57;;;;;;;-2.38;76.60;102296.23;1814344;79;21191;-34
2020/12/22 10:39:24;;;;;;;19.70;12.13;;;;;;;-2.39;76.15;102295.74;1814440;79;21030;-34
2020/12/22 10:41:52;;;;;;;23.57;11.18;;;;;;;-2.47;76.14;102291.44;1814633;79;20939;-34
2020/12/22 10:44:20;;;;;;;24.50;11.15;;;;;;;-2.50;76.25;102286.55;1814733;79;21433;-34
2020/12/22 10:46:48;;;;;;;19.12;11.28;;;;;;;-2.54;76.42;102287.14;1814580;79;20963;-37
2020/12/22 10:49:17;;;;;;;21.02;11.43;;;;;;;-2.56;76.53;102288.70;1814650;79;22225;-35
2020/12/22 10:51:45;;;;;;;16.93;11.08;;;;;;;-2.58;76.89;102280.97;1814496;79;21022;-34
2020/12/22 10:54:12;;;;;;;23.60;12.13;;;;;;;-2.54;76.75;102276.58;1814380;79;20990;-35
2020/12/22 10:56:45;;;;;;;20.95;11.45;;;;;;;-2.53;76.62;102269.46;1817383;79;21030;-33
2020/12/22 10:59:13;;;;;;;22.02;12.80;;;;;;;-2.57;76.52;102272.59;1817482;79;20959;-35
2020/12/22 11:01:41;;;;;;;20.12;12.37;;;;;;;-2.60;76.86;102275.82;1817464;79;21147;-36
2020/12/22 11:04:10;;;;;;;18.65;12.98;;;;;;;-2.60;76.85;102274.55;1817356;79;20943;-35
2020/12/22 11:06:48;;;;;;;27.07;14.40;;;;;;;-2.64;77.11;102270.44;1817440;79;20994;-34
2020/12/22 11:09:09;;;;;;;25.57;14.68;;;;;;;-2.67;77.51;102269.84;1816232;79;20935;-33
2020/12/22 11:11:46;;;;;;;25.17;13.72;;;;;;;-2.64;77.60;102272.60;1817474;78;20919;-36
2020/12/22 11:14:15;;;;;;;25.02;13.93;;;;;;;-2.67;77.59;102262.23;1817388;79;21199;-34
2020/12/22 11:16:44;;;;;;;24.80;12.68;;;;;;;-2.77;77.85;102259.89;1817419;79;21248;-35
2020/12/22 11:19:13;;;;;;;28.05;13.68;;;;;;;-2.77;78.05;102258.62;1817474;79;21002;-35
2020/12/22 11:21:45;;;;;;;29.80;14.98;;;;;;;-2.70;77.52;102260.77;1817385;79;21453;-35
2020/12/22 11:24:13;;;;;;;24.80;15.15;;;;;;;-2.72;77.56;102255.99;1817568;79;20961;-34